sensor_id;sensor_type;location;lat;lon;timestamp;P1;durP1;ratioP1;P2;durP2;ratioP2
8564;SDS011;4320;51.498;6.556;2022-11-12T00:00:34;8.43;;;5.55;;
8564;SDS011;4320;51.498;6.556;2022-11-12T00:03:00;9.20;;;5.25;;
8564;SDS011;4320;51.498;6.556;2022-11-12T00:05:26;8.80;;;5.47;;
8564;SDS011;4320;51.498;6.556;2022-11-12T00:07:52;8.70;;;4.65;;
8564;SDS011;4320;51.498;6.556;2022-11-12T00:10:17;8.65;;;5.63;;
8564;SDS011;4320;51.498;6.556;2022-11-12T00:12:43;7.15;;;5.32;;
8564;SDS011;4320;51.498;6.556;2022-11-12T00:15:09;11.30;;;5.65;;
8564;SDS011;4320;51.498;6.556;2022-11-12T00:17:35;6.63;;;5.25;;
8564;SDS011;4320;51.498;6.556;2022-11-12T00:20:02;8.85;;;6.43;;
8564;SDS011;4320;51.498;6.556;2022-11-12T00:22:28;8.88;;;5.88;;
8564;SDS011;4320;51.498;6.556;2022-11-12T00:24:53;8.52;;;5.95;;
8564;SDS011;4320;51.498;6.556;2022-11-12T00:27:19;11.23;;;6.00;;
8564;SDS011;4320;51.498;6.556;2022-11-12T00:29:44;10.35;;;7.68;;
8564;SDS011;4320;51.498;6.556;2022-11-12T00:32:10;12.52;;;6.50;;
8564;SDS011;4320;51.498;6.556;2022-11-12T00:34:36;9.13;;;6.75;;
8564;SDS011;4320;51.498;6.556;2022-11-12T00:37:02;11.15;;;7.80;;
8564;SDS011;4320;51.498;6.556;2022-11-12T00:39:28;11.73;;;7.05;;
8564;SDS011;4320;51.498;6.556;2022-11-12T00:41:54;10.50;;;7.50;;
8564;SDS011;4320;51.498;6.556;2022-11-12T00:44:20;10.45;;;6.85;;
8564;SDS011;4320;51.498;6.556;2022-11-12T00:46:46;10.15;;;6.60;;
8564;SDS011;4320;51.498;6.556;2022-11-12T00:49:12;10.73;;;6.05;;
8564;SDS011;4320;51.498;6.556;2022-11-12T00:51:37;11.18;;;6.43;;
8564;SDS011;4320;51.498;6.556;2022-11-12T00:54:03;10.07;;;6.55;;
8564;SDS011;4320;51.498;6.556;2022-11-12T00:56:29;9.05;;;6.95;;
8564;SDS011;4320;51.498;6.556;2022-11-12T00:58:55;9.10;;;6.35;;
8564;SDS011;4320;51.498;6.556;2022-11-12T01:01:21;11.02;;;6.00;;
8564;SDS011;4320;51.498;6.556;2022-11-12T01:03:47;10.65;;;6.45;;
8564;SDS011;4320;51.498;6.556;2022-11-12T01:06:14;10.27;;;6.57;;
8564;SDS011;4320;51.498;6.556;2022-11-12T01:08:41;7.43;;;5.97;;
8564;SDS011;4320;51.498;6.556;2022-11-12T01:11:08;10.07;;;5.90;;
8564;SDS011;4320;51.498;6.556;2022-11-12T01:13:38;9.55;;;6.30;;
8564;SDS011;4320;51.498;6.556;2022-11-12T01:16:11;11.00;;;6.47;;
8564;SDS011;4320;51.498;6.556;2022-11-12T01:18:41;12.52;;;7.88;;
8564;SDS011;4320;51.498;6.556;2022-11-12T01:21:07;12.48;;;6.97;;
8564;SDS011;4320;51.498;6.556;2022-11-12T01:23:34;12.45;;;7.60;;
8564;SDS011;4320;51.498;6.556;2022-11-12T01:26:04;9.32;;;6.07;;
8564;SDS011;4320;51.498;6.556;2022-11-12T01:28:34;13.02;;;6.63;;
8564;SDS011;4320;51.498;6.556;2022-11-12T01:31:11;12.20;;;7.20;;
8564;SDS011;4320;51.498;6.556;2022-11-12T01:34:04;8.77;;;6.07;;
8564;SDS011;4320;51.498;6.556;2022-11-12T01:36:34;10.38;;;6.18;;
8564;SDS011;4320;51.498;6.556;2022-11-12T01:39:02;9.32;;;6.70;;
8564;SDS011;4320;51.498;6.556;2022-11-12T01:41:30;13.50;;;6.30;;
8564;SDS011;4320;51.498;6.556;2022-11-12T01:44:14;11.57;;;5.95;;
8564;SDS011;4320;51.498;6.556;2022-11-12T01:54:54;11.25;;;5.78;;
8564;SDS011;4320;51.498;6.556;2022-11-12T01:57:26;6.75;;;5.65;;
8564;SDS011;4320;51.498;6.556;2022-11-12T01:59:57;11.07;;;5.93;;
8564;SDS011;4320;51.498;6.556;2022-11-12T02:02:26;10.93;;;6.15;;
8564;SDS011;4320;51.498;6.556;2022-11-12T02:04:52;9.35;;;5.80;;
8564;SDS011;4320;51.498;6.556;2022-11-12T02:07:20;11.05;;;6.15;;
8564;SDS011;4320;51.498;6.556;2022-11-12T02:09:47;8.77;;;6.05;;
8564;SDS011;4320;51.498;6.556;2022-11-12T02:12:13;8.38;;;5.85;;
8564;SDS011;4320;51.498;6.556;2022-11-12T02:14:58;7.95;;;5.40;;
8564;SDS011;4320;51.498;6.556;2022-11-12T02:17:24;7.57;;;5.63;;
8564;SDS011;4320;51.498;6.556;2022-11-12T02:19:50;10.38;;;6.50;;
8564;SDS011;4320;51.498;6.556;2022-11-12T02:22:17;8.13;;;5.35;;
8564;SDS011;4320;51.498;6.556;2022-11-12T02:24:42;9.38;;;5.80;;
8564;SDS011;4320;51.498;6.556;2022-11-12T02:27:08;7.78;;;5.45;;
8564;SDS011;4320;51.498;6.556;2022-11-12T02:29:35;10.93;;;5.00;;
8564;SDS011;4320;51.498;6.556;2022-11-12T02:32:10;7.30;;;4.97;;
8564;SDS011;4320;51.498;6.556;2022-11-12T02:34:39;8.38;;;5.43;;
8564;SDS011;4320;51.498;6.556;2022-11-12T02:37:05;7.20;;;5.25;;
8564;SDS011;4320;51.498;6.556;2022-11-12T02:39:31;6.97;;;5.45;;
8564;SDS011;4320;51.498;6.556;2022-11-12T02:41:57;8.27;;;5.70;;
8564;SDS011;4320;51.498;6.556;2022-11-12T02:44:23;7.25;;;5.07;;
8564;SDS011;4320;51.498;6.556;2022-11-12T02:46:49;8.73;;;5.45;;
8564;SDS011;4320;51.498;6.556;2022-11-12T02:49:14;7.80;;;5.60;;
8564;SDS011;4320;51.498;6.556;2022-11-12T02:51:40;7.45;;;5.13;;
8564;SDS011;4320;51.498;6.556;2022-11-12T02:54:06;9.65;;;5.30;;
8564;SDS011;4320;51.498;6.556;2022-11-12T02:56:32;7.07;;;5.30;;
8564;SDS011;4320;51.498;6.556;2022-11-12T02:58:59;6.85;;;4.95;;
8564;SDS011;4320;51.498;6.556;2022-11-12T03:01:25;7.18;;;5.25;;
8564;SDS011;4320;51.498;6.556;2022-11-12T03:03:51;8.63;;;5.85;;
8564;SDS011;4320;51.498;6.556;2022-11-12T03:06:17;7.50;;;5.25;;
8564;SDS011;4320;51.498;6.556;2022-11-12T03:08:43;8.80;;;5.88;;
8564;SDS011;4320;51.498;6.556;2022-11-12T03:11:09;8.00;;;5.72;;
8564;SDS011;4320;51.498;6.556;2022-11-12T03:13:36;7.03;;;5.13;;
8564;SDS011;4320;51.498;6.556;2022-11-12T03:16:03;11.27;;;6.40;;
8564;SDS011;4320;51.498;6.556;2022-11-12T03:18:29;7.25;;;5.82;;
8564;SDS011;4320;51.498;6.556;2022-11-12T03:20:55;8.18;;;5.30;;
8564;SDS011;4320;51.498;6.556;2022-11-12T03:23:21;10.88;;;6.20;;
8564;SDS011;4320;51.498;6.556;2022-11-12T03:25:46;9.45;;;5.68;;
8564;SDS011;4320;51.498;6.556;2022-11-12T03:28:12;8.20;;;5.55;;
8564;SDS011;4320;51.498;6.556;2022-11-12T03:30:40;9.32;;;6.25;;
8564;SDS011;4320;51.498;6.556;2022-11-12T03:33:07;10.82;;;6.00;;
8564;SDS011;4320;51.498;6.556;2022-11-12T03:35:33;6.82;;;5.45;;
8564;SDS011;4320;51.498;6.556;2022-11-12T03:38:00;9.85;;;5.75;;
8564;SDS011;4320;51.498;6.556;2022-11-12T03:40:26;6.57;;;5.28;;
8564;SDS011;4320;51.498;6.556;2022-11-12T03:42:52;9.00;;;5.05;;
8564;SDS011;4320;51.498;6.556;2022-11-12T03:45:19;6.05;;;4.97;;
8564;SDS011;4320;51.498;6.556;2022-11-12T03:47:50;5.85;;;4.93;;
8564;SDS011;4320;51.498;6.556;2022-11-12T03:50:17;7.38;;;4.60;;
8564;SDS011;4320;51.498;6.556;2022-11-12T03:52:44;9.10;;;5.40;;
8564;SDS011;4320;51.498;6.556;2022-11-12T03:55:12;6.63;;;4.95;;
8564;SDS011;4320;51.498;6.556;2022-11-12T03:57:39;8.25;;;4.90;;
8564;SDS011;4320;51.498;6.556;2022-11-12T04:00:05;9.77;;;5.20;;
8564;SDS011;4320;51.498;6.556;2022-11-12T04:02:32;11.35;;;5.05;;
8564;SDS011;4320;51.498;6.556;2022-11-12T04:04:58;8.95;;;4.97;;
8564;SDS011;4320;51.498;6.556;2022-11-12T04:07:43;6.90;;;4.55;;
8564;SDS011;4320;51.498;6.556;2022-11-12T04:10:27;6.03;;;4.80;;
8564;SDS011;4320;51.498;6.556;2022-11-12T04:12:56;7.85;;;4.35;;
8564;SDS011;4320;51.498;6.556;2022-11-12T04:15:40;5.40;;;4.68;;
8564;SDS011;4320;51.498;6.556;2022-11-12T04:18:05;9.63;;;4.78;;
8564;SDS011;4320;51.498;6.556;2022-11-12T04:20:50;7.40;;;4.75;;
8564;SDS011;4320;51.498;6.556;2022-11-12T04:23:34;6.75;;;4.95;;
8564;SDS011;4320;51.498;6.556;2022-11-12T04:25:59;6.05;;;4.43;;
8564;SDS011;4320;51.498;6.556;2022-11-12T04:28:43;7.93;;;4.88;;
8564;SDS011;4320;51.498;6.556;2022-11-12T04:31:29;7.63;;;5.18;;
8564;SDS011;4320;51.498;6.556;2022-11-12T04:33:55;8.45;;;5.05;;
8564;SDS011;4320;51.498;6.556;2022-11-12T04:36:40;9.13;;;5.38;;
8564;SDS011;4320;51.498;6.556;2022-11-12T04:39:06;7.75;;;4.50;;
8564;SDS011;4320;51.498;6.556;2022-11-12T04:41:31;5.40;;;4.15;;
8564;SDS011;4320;51.498;6.556;2022-11-12T04:44:16;5.93;;;4.60;;
8564;SDS011;4320;51.498;6.556;2022-11-12T04:47:00;5.30;;;4.30;;
8564;SDS011;4320;51.498;6.556;2022-11-12T04:49:25;8.05;;;4.22;;
8564;SDS011;4320;51.498;6.556;2022-11-12T04:51:51;7.53;;;4.78;;
8564;SDS011;4320;51.498;6.556;2022-11-12T04:54:29;7.03;;;4.57;;
8564;SDS011;4320;51.498;6.556;2022-11-12T04:56:54;6.63;;;4.47;;
8564;SDS011;4320;51.498;6.556;2022-11-12T04:59:20;5.80;;;3.85;;
8564;SDS011;4320;51.498;6.556;2022-11-12T05:01:46;7.47;;;4.45;;
8564;SDS011;4320;51.498;6.556;2022-11-12T05:04:11;5.18;;;4.10;;
8564;SDS011;4320;51.498;6.556;2022-11-12T05:06:37;5.88;;;4.60;;
8564;SDS011;4320;51.498;6.556;2022-11-12T05:09:27;7.05;;;4.00;;
8564;SDS011;4320;51.498;6.556;2022-11-12T05:11:54;8.07;;;4.35;;
8564;SDS011;4320;51.498;6.556;2022-11-12T05:14:21;5.60;;;4.07;;
8564;SDS011;4320;51.498;6.556;2022-11-12T05:16:47;8.38;;;4.60;;
8564;SDS011;4320;51.498;6.556;2022-11-12T05:19:12;5.70;;;4.05;;
8564;SDS011;4320;51.498;6.556;2022-11-12T05:21:38;4.32;;;3.90;;
8564;SDS011;4320;51.498;6.556;2022-11-12T05:24:23;5.85;;;4.32;;
8564;SDS011;4320;51.498;6.556;2022-11-12T05:26:49;7.22;;;4.45;;
8564;SDS011;4320;51.498;6.556;2022-11-12T05:29:15;7.47;;;4.82;;
8564;SDS011;4320;51.498;6.556;2022-11-12T05:31:41;8.80;;;5.50;;
8564;SDS011;4320;51.498;6.556;2022-11-12T05:34:07;7.85;;;5.15;;
8564;SDS011;4320;51.498;6.556;2022-11-12T05:36:32;11.98;;;5.38;;
8564;SDS011;4320;51.498;6.556;2022-11-12T05:38:58;12.32;;;6.45;;
8564;SDS011;4320;51.498;6.556;2022-11-12T05:41:24;11.77;;;7.15;;
8564;SDS011;4320;51.498;6.556;2022-11-12T05:43:50;10.90;;;6.00;;
8564;SDS011;4320;51.498;6.556;2022-11-12T05:46:15;7.07;;;5.10;;
8564;SDS011;4320;51.498;6.556;2022-11-12T05:48:42;7.30;;;5.50;;
8564;SDS011;4320;51.498;6.556;2022-11-12T05:51:08;6.63;;;5.10;;
8564;SDS011;4320;51.498;6.556;2022-11-12T05:53:34;9.00;;;4.90;;
8564;SDS011;4320;51.498;6.556;2022-11-12T05:56:00;6.65;;;4.43;;
8564;SDS011;4320;51.498;6.556;2022-11-12T05:58:27;6.45;;;4.70;;
8564;SDS011;4320;51.498;6.556;2022-11-12T06:00:52;10.57;;;5.63;;
8564;SDS011;4320;51.498;6.556;2022-11-12T06:03:18;6.13;;;4.97;;
8564;SDS011;4320;51.498;6.556;2022-11-12T06:05:44;5.85;;;4.60;;
8564;SDS011;4320;51.498;6.556;2022-11-12T06:08:09;7.40;;;5.28;;
8564;SDS011;4320;51.498;6.556;2022-11-12T06:10:35;7.25;;;4.38;;
8564;SDS011;4320;51.498;6.556;2022-11-12T06:13:01;6.03;;;4.82;;
8564;SDS011;4320;51.498;6.556;2022-11-12T06:15:26;8.23;;;4.72;;
8564;SDS011;4320;51.498;6.556;2022-11-12T06:17:52;6.38;;;4.75;;
8564;SDS011;4320;51.498;6.556;2022-11-12T06:20:18;8.15;;;5.25;;
8564;SDS011;4320;51.498;6.556;2022-11-12T06:22:44;9.43;;;5.18;;
8564;SDS011;4320;51.498;6.556;2022-11-12T06:25:10;5.88;;;4.63;;
8564;SDS011;4320;51.498;6.556;2022-11-12T06:27:36;10.52;;;4.93;;
8564;SDS011;4320;51.498;6.556;2022-11-12T06:30:05;7.30;;;5.50;;
8564;SDS011;4320;51.498;6.556;2022-11-12T06:32:32;10.63;;;5.83;;
8564;SDS011;4320;51.498;6.556;2022-11-12T06:34:58;6.97;;;5.40;;
8564;SDS011;4320;51.498;6.556;2022-11-12T06:37:24;17.38;;;5.68;;
8564;SDS011;4320;51.498;6.556;2022-11-12T06:39:49;7.40;;;5.32;;
8564;SDS011;4320;51.498;6.556;2022-11-12T06:42:15;8.02;;;5.70;;
8564;SDS011;4320;51.498;6.556;2022-11-12T06:44:41;8.27;;;4.97;;
8564;SDS011;4320;51.498;6.556;2022-11-12T06:47:06;6.65;;;4.93;;
8564;SDS011;4320;51.498;6.556;2022-11-12T06:49:32;8.65;;;5.35;;
8564;SDS011;4320;51.498;6.556;2022-11-12T06:51:58;6.45;;;5.25;;
8564;SDS011;4320;51.498;6.556;2022-11-12T06:54:24;7.38;;;4.93;;
8564;SDS011;4320;51.498;6.556;2022-11-12T06:56:49;6.85;;;4.88;;
8564;SDS011;4320;51.498;6.556;2022-11-12T06:59:15;7.80;;;5.82;;
8564;SDS011;4320;51.498;6.556;2022-11-12T07:01:41;8.98;;;4.85;;
8564;SDS011;4320;51.498;6.556;2022-11-12T07:04:06;8.82;;;4.90;;
8564;SDS011;4320;51.498;6.556;2022-11-12T07:06:32;8.07;;;5.07;;
8564;SDS011;4320;51.498;6.556;2022-11-12T07:08:58;9.25;;;5.85;;
8564;SDS011;4320;51.498;6.556;2022-11-12T07:11:24;6.47;;;4.90;;
8564;SDS011;4320;51.498;6.556;2022-11-12T07:13:49;9.60;;;5.35;;
8564;SDS011;4320;51.498;6.556;2022-11-12T07:16:16;13.63;;;5.32;;
8564;SDS011;4320;51.498;6.556;2022-11-12T07:18:43;7.25;;;5.38;;
8564;SDS011;4320;51.498;6.556;2022-11-12T07:21:10;5.97;;;4.25;;
8564;SDS011;4320;51.498;6.556;2022-11-12T07:23:37;8.25;;;5.47;;
8564;SDS011;4320;51.498;6.556;2022-11-12T07:26:04;7.13;;;4.93;;
8564;SDS011;4320;51.498;6.556;2022-11-12T07:28:32;7.45;;;5.05;;
8564;SDS011;4320;51.498;6.556;2022-11-12T07:30:58;6.93;;;4.80;;
8564;SDS011;4320;51.498;6.556;2022-11-12T07:33:26;6.53;;;4.88;;
8564;SDS011;4320;51.498;6.556;2022-11-12T07:35:59;5.40;;;4.57;;
8564;SDS011;4320;51.498;6.556;2022-11-12T07:38:29;7.40;;;5.10;;
8564;SDS011;4320;51.498;6.556;2022-11-12T07:40:57;6.57;;;4.75;;
8564;SDS011;4320;51.498;6.556;2022-11-12T07:43:29;8.43;;;4.65;;
8564;SDS011;4320;51.498;6.556;2022-11-12T07:46:03;9.93;;;4.93;;
8564;SDS011;4320;51.498;6.556;2022-11-12T07:48:39;9.98;;;4.75;;
8564;SDS011;4320;51.498;6.556;2022-11-12T07:51:16;7.13;;;4.68;;
8564;SDS011;4320;51.498;6.556;2022-11-12T07:53:44;7.75;;;4.10;;
8564;SDS011;4320;51.498;6.556;2022-11-12T07:56:11;8.07;;;4.53;;
8564;SDS011;4320;51.498;6.556;2022-11-12T07:58:39;8.63;;;4.63;;
8564;SDS011;4320;51.498;6.556;2022-11-12T08:03:42;8.23;;;4.18;;
8564;SDS011;4320;51.498;6.556;2022-11-12T08:06:07;6.32;;;4.15;;
8564;SDS011;4320;51.498;6.556;2022-11-12T08:08:33;5.32;;;3.80;;
8564;SDS011;4320;51.498;6.556;2022-11-12T08:10:59;5.07;;;4.45;;
8564;SDS011;4320;51.498;6.556;2022-11-12T08:13:24;5.95;;;4.30;;
8564;SDS011;4320;51.498;6.556;2022-11-12T08:15:50;6.00;;;3.75;;
8564;SDS011;4320;51.498;6.556;2022-11-12T08:18:16;7.07;;;4.72;;
8564;SDS011;4320;51.498;6.556;2022-11-12T08:20:42;4.72;;;3.78;;
8564;SDS011;4320;51.498;6.556;2022-11-12T08:23:08;6.18;;;3.90;;
8564;SDS011;4320;51.498;6.556;2022-11-12T08:25:34;5.32;;;4.00;;
8564;SDS011;4320;51.498;6.556;2022-11-12T08:28:00;4.60;;;3.83;;
8564;SDS011;4320;51.498;6.556;2022-11-12T08:30:26;4.40;;;3.85;;
8564;SDS011;4320;51.498;6.556;2022-11-12T08:32:56;5.07;;;3.55;;
8564;SDS011;4320;51.498;6.556;2022-11-12T08:35:24;5.25;;;3.70;;
8564;SDS011;4320;51.498;6.556;2022-11-12T08:37:50;4.25;;;3.83;;
8564;SDS011;4320;51.498;6.556;2022-11-12T08:40:21;5.50;;;3.97;;
8564;SDS011;4320;51.498;6.556;2022-11-12T08:42:46;5.85;;;3.88;;
8564;SDS011;4320;51.498;6.556;2022-11-12T08:45:12;5.13;;;3.78;;
8564;SDS011;4320;51.498;6.556;2022-11-12T08:47:37;4.68;;;4.18;;
8564;SDS011;4320;51.498;6.556;2022-11-12T08:50:03;4.20;;;3.55;;
8564;SDS011;4320;51.498;6.556;2022-11-12T08:52:29;7.38;;;3.67;;
8564;SDS011;4320;51.498;6.556;2022-11-12T08:54:55;4.55;;;3.45;;
8564;SDS011;4320;51.498;6.556;2022-11-12T08:57:21;6.18;;;4.07;;
8564;SDS011;4320;51.498;6.556;2022-11-12T08:59:46;5.90;;;3.97;;
8564;SDS011;4320;51.498;6.556;2022-11-12T09:02:12;6.15;;;3.65;;
8564;SDS011;4320;51.498;6.556;2022-11-12T09:04:38;5.65;;;3.53;;
8564;SDS011;4320;51.498;6.556;2022-11-12T09:07:03;7.63;;;3.72;;
8564;SDS011;4320;51.498;6.556;2022-11-12T09:09:29;4.07;;;3.10;;
8564;SDS011;4320;51.498;6.556;2022-11-12T09:11:55;6.70;;;3.53;;
8564;SDS011;4320;51.498;6.556;2022-11-12T09:14:20;4.88;;;3.90;;
8564;SDS011;4320;51.498;6.556;2022-11-12T09:16:46;3.90;;;3.50;;
8564;SDS011;4320;51.498;6.556;2022-11-12T09:19:11;3.83;;;3.40;;
8564;SDS011;4320;51.498;6.556;2022-11-12T09:21:37;7.50;;;3.63;;
8564;SDS011;4320;51.498;6.556;2022-11-12T09:24:03;6.90;;;4.05;;
8564;SDS011;4320;51.498;6.556;2022-11-12T09:26:28;4.72;;;3.65;;
8564;SDS011;4320;51.498;6.556;2022-11-12T09:28:54;3.55;;;3.13;;
8564;SDS011;4320;51.498;6.556;2022-11-12T09:31:20;4.20;;;3.47;;
8564;SDS011;4320;51.498;6.556;2022-11-12T09:33:45;5.22;;;3.22;;
8564;SDS011;4320;51.498;6.556;2022-11-12T09:36:11;3.72;;;2.83;;
8564;SDS011;4320;51.498;6.556;2022-11-12T09:38:36;3.97;;;3.20;;
8564;SDS011;4320;51.498;6.556;2022-11-12T09:41:16;3.92;;;2.83;;
8564;SDS011;4320;51.498;6.556;2022-11-12T09:48:43;4.10;;;2.67;;
8564;SDS011;4320;51.498;6.556;2022-11-12T09:51:26;3.92;;;3.17;;
8564;SDS011;4320;51.498;6.556;2022-11-12T09:54:10;5.43;;;2.88;;
8564;SDS011;4320;51.498;6.556;2022-11-12T09:56:46;3.30;;;3.00;;
8564;SDS011;4320;51.498;6.556;2022-11-12T09:59:13;5.28;;;3.00;;
8564;SDS011;4320;51.498;6.556;2022-11-12T10:01:45;6.10;;;3.25;;
8564;SDS011;4320;51.498;6.556;2022-11-12T10:07:19;4.00;;;3.30;;
8564;SDS011;4320;51.498;6.556;2022-11-12T10:10:11;4.45;;;3.45;;
8564;SDS011;4320;51.498;6.556;2022-11-12T10:12:45;4.57;;;3.38;;
8564;SDS011;4320;51.498;6.556;2022-11-12T10:24:02;4.28;;;3.30;;
8564;SDS011;4320;51.498;6.556;2022-11-12T10:26:32;3.33;;;3.03;;
8564;SDS011;4320;51.498;6.556;2022-11-12T10:31:52;7.47;;;4.22;;
8564;SDS011;4320;51.498;6.556;2022-11-12T10:34:18;11.57;;;6.80;;
8564;SDS011;4320;51.498;6.556;2022-11-12T10:36:47;12.98;;;6.88;;
8564;SDS011;4320;51.498;6.556;2022-11-12T10:39:29;11.15;;;7.57;;
8564;SDS011;4320;51.498;6.556;2022-11-12T10:44:35;10.55;;;6.00;;
8564;SDS011;4320;51.498;6.556;2022-11-12T10:52:28;11.93;;;6.97;;
8564;SDS011;4320;51.498;6.556;2022-11-12T10:55:05;9.23;;;5.47;;
8564;SDS011;4320;51.498;6.556;2022-11-12T10:57:42;10.73;;;5.18;;
8564;SDS011;4320;51.498;6.556;2022-11-12T11:02:49;15.43;;;5.18;;
8564;SDS011;4320;51.498;6.556;2022-11-12T11:05:26;7.22;;;4.97;;
8564;SDS011;4320;51.498;6.556;2022-11-12T11:07:56;9.85;;;5.93;;
8564;SDS011;4320;51.498;6.556;2022-11-12T11:10:26;9.77;;;6.15;;
8564;SDS011;4320;51.498;6.556;2022-11-12T11:13:15;7.90;;;4.97;;
8564;SDS011;4320;51.498;6.556;2022-11-12T11:15:56;8.98;;;5.03;;
8564;SDS011;4320;51.498;6.556;2022-11-12T11:18:29;7.15;;;4.65;;
8564;SDS011;4320;51.498;6.556;2022-11-12T11:24:10;6.95;;;4.50;;
8564;SDS011;4320;51.498;6.556;2022-11-12T11:27:11;6.03;;;4.45;;
8564;SDS011;4320;51.498;6.556;2022-11-12T11:30:00;3.55;;;3.13;;
8564;SDS011;4320;51.498;6.556;2022-11-12T11:41:27;3.90;;;3.25;;
8564;SDS011;4320;51.498;6.556;2022-11-12T11:49:48;4.70;;;3.50;;
8564;SDS011;4320;51.498;6.556;2022-11-12T11:52:37;6.45;;;3.30;;
8564;SDS011;4320;51.498;6.556;2022-11-12T11:55:08;6.75;;;3.40;;
8564;SDS011;4320;51.498;6.556;2022-11-12T12:00:20;4.63;;;3.58;;
8564;SDS011;4320;51.498;6.556;2022-11-12T12:08:09;6.03;;;4.68;;
8564;SDS011;4320;51.498;6.556;2022-11-12T12:16:46;4.63;;;3.13;;
8564;SDS011;4320;51.498;6.556;2022-11-12T12:19:26;7.10;;;3.75;;
8564;SDS011;4320;51.498;6.556;2022-11-12T12:22:02;5.85;;;3.38;;
8564;SDS011;4320;51.498;6.556;2022-11-12T12:27:11;5.38;;;3.40;;
8564;SDS011;4320;51.498;6.556;2022-11-12T12:30:01;4.65;;;3.00;;
8564;SDS011;4320;51.498;6.556;2022-11-12T12:32:48;5.40;;;3.45;;
8564;SDS011;4320;51.498;6.556;2022-11-12T12:35:22;4.15;;;3.05;;
8564;SDS011;4320;51.498;6.556;2022-11-12T12:38:04;5.60;;;3.83;;
8564;SDS011;4320;51.498;6.556;2022-11-12T12:40:42;4.07;;;3.65;;
8564;SDS011;4320;51.498;6.556;2022-11-12T12:43:57;4.78;;;3.42;;
8564;SDS011;4320;51.498;6.556;2022-11-12T12:46:03;10.18;;;3.50;;
8564;SDS011;4320;51.498;6.556;2022-11-12T12:48:31;6.07;;;3.42;;
8564;SDS011;4320;51.498;6.556;2022-11-12T12:51:02;5.80;;;2.97;;
8564;SDS011;4320;51.498;6.556;2022-11-12T12:55:55;5.95;;;3.17;;
8564;SDS011;4320;51.498;6.556;2022-11-12T12:58:26;7.07;;;3.38;;
8564;SDS011;4320;51.498;6.556;2022-11-12T13:01:01;4.25;;;2.80;;
8564;SDS011;4320;51.498;6.556;2022-11-12T13:06:21;7.20;;;3.08;;
8564;SDS011;4320;51.498;6.556;2022-11-12T13:08:48;5.35;;;2.95;;
8564;SDS011;4320;51.498;6.556;2022-11-12T13:11:51;2.72;;;2.45;;
8564;SDS011;4320;51.498;6.556;2022-11-12T13:17:02;5.38;;;3.15;;
8564;SDS011;4320;51.498;6.556;2022-11-12T13:37:46;4.07;;;2.83;;
8564;SDS011;4320;51.498;6.556;2022-11-12T13:40:41;3.42;;;2.53;;
8564;SDS011;4320;51.498;6.556;2022-11-12T13:51:05;3.00;;;2.70;;
8564;SDS011;4320;51.498;6.556;2022-11-12T13:53:41;3.75;;;2.97;;
8564;SDS011;4320;51.498;6.556;2022-11-12T13:56:08;5.35;;;2.88;;
8564;SDS011;4320;51.498;6.556;2022-11-12T13:58:35;4.20;;;3.22;;
8564;SDS011;4320;51.498;6.556;2022-11-12T14:01:04;5.50;;;3.15;;
8564;SDS011;4320;51.498;6.556;2022-11-12T14:03:31;6.90;;;2.67;;
8564;SDS011;4320;51.498;6.556;2022-11-12T14:06:18;4.65;;;3.05;;
8564;SDS011;4320;51.498;6.556;2022-11-12T14:09:16;3.72;;;2.55;;
8564;SDS011;4320;51.498;6.556;2022-11-12T14:14:54;9.35;;;2.85;;
8564;SDS011;4320;51.498;6.556;2022-11-12T14:20:31;3.65;;;3.00;;
8564;SDS011;4320;51.498;6.556;2022-11-12T14:23:11;5.30;;;2.70;;
8564;SDS011;4320;51.498;6.556;2022-11-12T14:25:48;5.30;;;3.05;;
8564;SDS011;4320;51.498;6.556;2022-11-12T14:28:29;4.85;;;3.17;;
8564;SDS011;4320;51.498;6.556;2022-11-12T14:30:57;5.88;;;2.90;;
8564;SDS011;4320;51.498;6.556;2022-11-12T14:33:25;7.55;;;3.20;;
8564;SDS011;4320;51.498;6.556;2022-11-12T14:35:53;5.75;;;3.33;;
8564;SDS011;4320;51.498;6.556;2022-11-12T14:38:27;6.35;;;3.25;;
8564;SDS011;4320;51.498;6.556;2022-11-12T14:41:41;6.75;;;3.20;;
8564;SDS011;4320;51.498;6.556;2022-11-12T14:43:56;5.78;;;3.75;;
8564;SDS011;4320;51.498;6.556;2022-11-12T14:46:25;5.97;;;3.33;;
8564;SDS011;4320;51.498;6.556;2022-11-12T14:49:03;6.80;;;3.42;;
8564;SDS011;4320;51.498;6.556;2022-11-12T14:52:28;5.07;;;3.25;;
8564;SDS011;4320;51.498;6.556;2022-11-12T14:54:34;4.15;;;3.30;;
8564;SDS011;4320;51.498;6.556;2022-11-12T14:57:05;4.28;;;3.30;;
8564;SDS011;4320;51.498;6.556;2022-11-12T14:59:34;8.32;;;3.85;;
8564;SDS011;4320;51.498;6.556;2022-11-12T15:04:44;4.60;;;3.33;;
8564;SDS011;4320;51.498;6.556;2022-11-12T15:07:25;7.60;;;3.90;;
8564;SDS011;4320;51.498;6.556;2022-11-12T15:09:53;3.60;;;3.30;;
8564;SDS011;4320;51.498;6.556;2022-11-12T15:12:19;5.22;;;3.58;;
8564;SDS011;4320;51.498;6.556;2022-11-12T15:14:47;5.68;;;3.75;;
8564;SDS011;4320;51.498;6.556;2022-11-12T15:17:30;5.45;;;4.32;;
8564;SDS011;4320;51.498;6.556;2022-11-12T15:20:01;5.50;;;3.95;;
8564;SDS011;4320;51.498;6.556;2022-11-12T15:22:29;6.38;;;4.88;;
8564;SDS011;4320;51.498;6.556;2022-11-12T15:24:55;7.68;;;4.40;;
8564;SDS011;4320;51.498;6.556;2022-11-12T15:27:44;16.13;;;10.18;;
8564;SDS011;4320;51.498;6.556;2022-11-12T15:30:13;16.05;;;12.38;;
8564;SDS011;4320;51.498;6.556;2022-11-12T15:32:41;43.40;;;27.42;;
8564;SDS011;4320;51.498;6.556;2022-11-12T15:38:28;28.05;;;17.42;;
8564;SDS011;4320;51.498;6.556;2022-11-12T15:41:00;31.23;;;17.85;;
8564;SDS011;4320;51.498;6.556;2022-11-12T15:43:31;23.45;;;14.82;;
8564;SDS011;4320;51.498;6.556;2022-11-12T15:45:59;27.67;;;15.60;;
8564;SDS011;4320;51.498;6.556;2022-11-12T15:48:26;27.20;;;16.55;;
8564;SDS011;4320;51.498;6.556;2022-11-12T15:50:52;26.23;;;14.48;;
8564;SDS011;4320;51.498;6.556;2022-11-12T15:53:19;20.90;;;13.05;;
8564;SDS011;4320;51.498;6.556;2022-11-12T15:55:45;16.15;;;11.32;;
8564;SDS011;4320;51.498;6.556;2022-11-12T15:58:16;22.13;;;13.38;;
8564;SDS011;4320;51.498;6.556;2022-11-12T16:00:44;16.17;;;10.48;;
8564;SDS011;4320;51.498;6.556;2022-11-12T16:03:14;15.75;;;8.80;;
8564;SDS011;4320;51.498;6.556;2022-11-12T16:05:42;12.88;;;7.78;;
8564;SDS011;4320;51.498;6.556;2022-11-12T16:08:08;14.77;;;8.27;;
8564;SDS011;4320;51.498;6.556;2022-11-12T16:10:33;13.85;;;7.88;;
8564;SDS011;4320;51.498;6.556;2022-11-12T16:13:00;13.77;;;8.10;;
8564;SDS011;4320;51.498;6.556;2022-11-12T16:15:27;16.75;;;9.35;;
8564;SDS011;4320;51.498;6.556;2022-11-12T16:17:53;14.48;;;8.95;;
8564;SDS011;4320;51.498;6.556;2022-11-12T16:20:24;16.02;;;10.05;;
8564;SDS011;4320;51.498;6.556;2022-11-12T16:22:51;16.05;;;8.82;;
8564;SDS011;4320;51.498;6.556;2022-11-12T16:25:18;18.13;;;9.23;;
8564;SDS011;4320;51.498;6.556;2022-11-12T16:27:44;15.75;;;9.05;;
8564;SDS011;4320;51.498;6.556;2022-11-12T16:30:15;22.05;;;9.10;;
8564;SDS011;4320;51.498;6.556;2022-11-12T16:32:43;13.88;;;8.63;;
8564;SDS011;4320;51.498;6.556;2022-11-12T16:35:09;16.67;;;8.35;;
8564;SDS011;4320;51.498;6.556;2022-11-12T16:37:35;20.15;;;12.45;;
8564;SDS011;4320;51.498;6.556;2022-11-12T16:40:05;14.90;;;9.50;;
8564;SDS011;4320;51.498;6.556;2022-11-12T16:42:33;17.42;;;10.80;;
8564;SDS011;4320;51.498;6.556;2022-11-12T16:44:59;15.40;;;10.02;;
8564;SDS011;4320;51.498;6.556;2022-11-12T16:47:25;15.35;;;9.60;;
8564;SDS011;4320;51.498;6.556;2022-11-12T16:49:51;14.68;;;9.65;;
8564;SDS011;4320;51.498;6.556;2022-11-12T16:52:16;14.32;;;9.70;;
8564;SDS011;4320;51.498;6.556;2022-11-12T16:54:45;17.27;;;10.70;;
8564;SDS011;4320;51.498;6.556;2022-11-12T16:57:11;17.92;;;10.55;;
8564;SDS011;4320;51.498;6.556;2022-11-12T16:59:46;20.65;;;10.90;;
8564;SDS011;4320;51.498;6.556;2022-11-12T17:02:12;18.83;;;9.45;;
8564;SDS011;4320;51.498;6.556;2022-11-12T17:04:40;15.02;;;9.23;;
8564;SDS011;4320;51.498;6.556;2022-11-12T17:07:06;12.20;;;9.02;;
8564;SDS011;4320;51.498;6.556;2022-11-12T17:09:31;16.15;;;10.25;;
8564;SDS011;4320;51.498;6.556;2022-11-12T17:11:57;13.32;;;9.43;;
8564;SDS011;4320;51.498;6.556;2022-11-12T17:14:22;14.25;;;10.07;;
8564;SDS011;4320;51.498;6.556;2022-11-12T17:16:48;15.05;;;9.65;;
8564;SDS011;4320;51.498;6.556;2022-11-12T17:19:14;17.05;;;10.65;;
8564;SDS011;4320;51.498;6.556;2022-11-12T17:21:39;14.55;;;9.35;;
8564;SDS011;4320;51.498;6.556;2022-11-12T17:24:08;17.45;;;10.60;;
8564;SDS011;4320;51.498;6.556;2022-11-12T17:26:34;21.63;;;10.80;;